sensor_id;sensor_type;location;lat;lon;timestamp;P1;durP1;ratioP1;P2;durP2;ratioP2
6667;SDS011;3370;47.712;9.082;2023-10-08T00:00:49;8.83;;;7.83;;
6667;SDS011;3370;47.712;9.082;2023-10-08T00:03:15;12.70;;;7.27;;
6667;SDS011;3370;47.712;9.082;2023-10-08T00:05:45;11.10;;;8.30;;
6667;SDS011;3370;47.712;9.082;2023-10-08T00:08:12;12.80;;;8.70;;
6667;SDS011;3370;47.712;9.082;2023-10-08T00:10:41;10.90;;;8.67;;
6667;SDS011;3370;47.712;9.082;2023-10-08T00:13:08;12.27;;;8.20;;
6667;SDS011;3370;47.712;9.082;2023-10-08T00:15:35;12.47;;;9.07;;
6667;SDS011;3370;47.712;9.082;2023-10-08T00:18:04;10.67;;;8.20;;
6667;SDS011;3370;47.712;9.082;2023-10-08T00:20:35;12.43;;;8.13;;
6667;SDS011;3370;47.712;9.082;2023-10-08T00:23:12;11.97;;;8.37;;
6667;SDS011;3370;47.712;9.082;2023-10-08T00:25:42;11.63;;;9.03;;
6667;SDS011;3370;47.712;9.082;2023-10-08T00:28:12;10.50;;;8.07;;
6667;SDS011;3370;47.712;9.082;2023-10-08T00:30:42;12.50;;;8.53;;
6667;SDS011;3370;47.712;9.082;2023-10-08T00:33:09;11.37;;;8.73;;
6667;SDS011;3370;47.712;9.082;2023-10-08T00:35:40;11.33;;;8.53;;
6667;SDS011;3370;47.712;9.082;2023-10-08T00:38:10;10.40;;;8.20;;
6667;SDS011;3370;47.712;9.082;2023-10-08T00:40:45;10.77;;;8.27;;
6667;SDS011;3370;47.712;9.082;2023-10-08T00:43:32;10.17;;;8.50;;
6667;SDS011;3370;47.712;9.082;2023-10-08T00:46:02;10.00;;;7.90;;
6667;SDS011;3370;47.712;9.082;2023-10-08T00:48:30;9.50;;;8.20;;
6667;SDS011;3370;47.712;9.082;2023-10-08T00:51:03;9.63;;;7.30;;
6667;SDS011;3370;47.712;9.082;2023-10-08T00:53:55;11.87;;;9.33;;
6667;SDS011;3370;47.712;9.082;2023-10-08T00:56:31;12.90;;;8.93;;
6667;SDS011;3370;47.712;9.082;2023-10-08T00:59:17;10.90;;;8.30;;
6667;SDS011;3370;47.712;9.082;2023-10-08T01:01:46;13.27;;;8.90;;
6667;SDS011;3370;47.712;9.082;2023-10-08T01:04:17;11.80;;;8.20;;
6667;SDS011;3370;47.712;9.082;2023-10-08T01:06:48;13.13;;;9.73;;
6667;SDS011;3370;47.712;9.082;2023-10-08T01:09:26;11.90;;;8.87;;
6667;SDS011;3370;47.712;9.082;2023-10-08T01:12:20;9.47;;;8.47;;
6667;SDS011;3370;47.712;9.082;2023-10-08T01:14:51;10.73;;;8.93;;
6667;SDS011;3370;47.712;9.082;2023-10-08T01:17:29;13.20;;;9.37;;
6667;SDS011;3370;47.712;9.082;2023-10-08T01:19:57;9.93;;;8.23;;
6667;SDS011;3370;47.712;9.082;2023-10-08T01:22:34;12.13;;;8.30;;
6667;SDS011;3370;47.712;9.082;2023-10-08T01:25:00;11.97;;;8.60;;
6667;SDS011;3370;47.712;9.082;2023-10-08T01:27:29;15.10;;;8.67;;
6667;SDS011;3370;47.712;9.082;2023-10-08T01:29:59;10.67;;;8.07;;
6667;SDS011;3370;47.712;9.082;2023-10-08T01:32:46;10.07;;;8.30;;
6667;SDS011;3370;47.712;9.082;2023-10-08T01:35:12;13.27;;;9.70;;
6667;SDS011;3370;47.712;9.082;2023-10-08T01:37:57;13.57;;;9.63;;
6667;SDS011;3370;47.712;9.082;2023-10-08T01:40:24;13.23;;;10.10;;
6667;SDS011;3370;47.712;9.082;2023-10-08T01:42:51;10.80;;;8.97;;
6667;SDS011;3370;47.712;9.082;2023-10-08T01:45:18;12.03;;;9.03;;
6667;SDS011;3370;47.712;9.082;2023-10-08T01:51:25;11.63;;;9.17;;
6667;SDS011;3370;47.712;9.082;2023-10-08T01:54:01;11.40;;;9.00;;
6667;SDS011;3370;47.712;9.082;2023-10-08T01:56:28;13.50;;;9.87;;
6667;SDS011;3370;47.712;9.082;2023-10-08T01:58:54;12.00;;;9.70;;
6667;SDS011;3370;47.712;9.082;2023-10-08T02:01:21;13.40;;;8.90;;
6667;SDS011;3370;47.712;9.082;2023-10-08T02:03:47;12.30;;;9.27;;
6667;SDS011;3370;47.712;9.082;2023-10-08T02:06:13;12.57;;;8.97;;
6667;SDS011;3370;47.712;9.082;2023-10-08T02:08:39;14.90;;;9.77;;
6667;SDS011;3370;47.712;9.082;2023-10-08T02:11:04;10.50;;;9.00;;
6667;SDS011;3370;47.712;9.082;2023-10-08T02:13:30;9.73;;;8.53;;
6667;SDS011;3370;47.712;9.082;2023-10-08T02:15:56;14.67;;;10.47;;
6667;SDS011;3370;47.712;9.082;2023-10-08T02:18:23;13.23;;;9.80;;
6667;SDS011;3370;47.712;9.082;2023-10-08T02:20:50;13.13;;;8.83;;
6667;SDS011;3370;47.712;9.082;2023-10-08T02:23:16;15.30;;;8.60;;
6667;SDS011;3370;47.712;9.082;2023-10-08T02:25:43;13.70;;;8.90;;
6667;SDS011;3370;47.712;9.082;2023-10-08T02:28:09;11.37;;;8.63;;
6667;SDS011;3370;47.712;9.082;2023-10-08T02:30:40;10.30;;;8.70;;
6667;SDS011;3370;47.712;9.082;2023-10-08T02:33:07;15.20;;;9.97;;
6667;SDS011;3370;47.712;9.082;2023-10-08T02:35:42;12.47;;;8.20;;
6667;SDS011;3370;47.712;9.082;2023-10-08T02:38:09;11.40;;;9.37;;
6667;SDS011;3370;47.712;9.082;2023-10-08T02:40:38;11.13;;;8.47;;
6667;SDS011;3370;47.712;9.082;2023-10-08T02:43:10;13.10;;;8.63;;
6667;SDS011;3370;47.712;9.082;2023-10-08T02:45:36;14.90;;;9.80;;
6667;SDS011;3370;47.712;9.082;2023-10-08T02:48:06;15.20;;;10.83;;
6667;SDS011;3370;47.712;9.082;2023-10-08T02:50:47;13.87;;;8.57;;
6667;SDS011;3370;47.712;9.082;2023-10-08T02:53:13;10.43;;;8.77;;
6667;SDS011;3370;47.712;9.082;2023-10-08T02:55:50;15.43;;;9.17;;
6667;SDS011;3370;47.712;9.082;2023-10-08T02:58:17;13.40;;;9.30;;
6667;SDS011;3370;47.712;9.082;2023-10-08T03:00:47;15.30;;;10.70;;
6667;SDS011;3370;47.712;9.082;2023-10-08T03:03:17;10.83;;;8.17;;
6667;SDS011;3370;47.712;9.082;2023-10-08T03:05:49;16.00;;;9.93;;
6667;SDS011;3370;47.712;9.082;2023-10-08T03:08:18;15.17;;;9.70;;
6667;SDS011;3370;47.712;9.082;2023-10-08T03:10:46;12.93;;;9.63;;
6667;SDS011;3370;47.712;9.082;2023-10-08T03:13:27;11.60;;;8.93;;
6667;SDS011;3370;47.712;9.082;2023-10-08T03:15:53;12.60;;;9.90;;
6667;SDS011;3370;47.712;9.082;2023-10-08T03:18:32;14.10;;;9.70;;
6667;SDS011;3370;47.712;9.082;2023-10-08T03:21:02;10.50;;;9.40;;
6667;SDS011;3370;47.712;9.082;2023-10-08T03:23:30;13.57;;;9.97;;
6667;SDS011;3370;47.712;9.082;2023-10-08T03:26:01;11.63;;;9.40;;
6667;SDS011;3370;47.712;9.082;2023-10-08T03:28:48;13.57;;;9.00;;
6667;SDS011;3370;47.712;9.082;2023-10-08T03:31:22;14.83;;;9.30;;
6667;SDS011;3370;47.712;9.082;2023-10-08T03:34:09;8.90;;;7.97;;
6667;SDS011;3370;47.712;9.082;2023-10-08T03:36:40;10.47;;;8.87;;
6667;SDS011;3370;47.712;9.082;2023-10-08T03:39:16;11.80;;;8.60;;
6667;SDS011;3370;47.712;9.082;2023-10-08T03:41:43;10.67;;;8.27;;
6667;SDS011;3370;47.712;9.082;2023-10-08T03:44:45;10.47;;;8.23;;
6667;SDS011;3370;47.712;9.082;2023-10-08T03:47:16;9.60;;;7.77;;
6667;SDS011;3370;47.712;9.082;2023-10-08T03:49:44;9.50;;;7.23;;
6667;SDS011;3370;47.712;9.082;2023-10-08T03:52:11;9.67;;;7.77;;
6667;SDS011;3370;47.712;9.082;2023-10-08T03:54:40;9.70;;;7.63;;
6667;SDS011;3370;47.712;9.082;2023-10-08T03:57:13;10.87;;;8.63;;
6667;SDS011;3370;47.712;9.082;2023-10-08T03:59:50;11.00;;;9.00;;
6667;SDS011;3370;47.712;9.082;2023-10-08T04:02:20;12.60;;;8.00;;
6667;SDS011;3370;47.712;9.082;2023-10-08T04:04:56;13.57;;;9.40;;
6667;SDS011;3370;47.712;9.082;2023-10-08T04:07:23;16.10;;;10.13;;
6667;SDS011;3370;47.712;9.082;2023-10-08T04:09:57;13.30;;;9.87;;
6667;SDS011;3370;47.712;9.082;2023-10-08T04:12:33;13.10;;;9.53;;
6667;SDS011;3370;47.712;9.082;2023-10-08T04:15:02;11.90;;;9.30;;
6667;SDS011;3370;47.712;9.082;2023-10-08T04:17:32;12.63;;;8.37;;
6667;SDS011;3370;47.712;9.082;2023-10-08T04:20:09;13.63;;;9.33;;
6667;SDS011;3370;47.712;9.082;2023-10-08T04:22:57;11.87;;;8.60;;
6667;SDS011;3370;47.712;9.082;2023-10-08T04:25:25;19.63;;;9.80;;
6667;SDS011;3370;47.712;9.082;2023-10-08T04:27:55;15.03;;;10.23;;
6667;SDS011;3370;47.712;9.082;2023-10-08T04:30:26;13.77;;;9.80;;
6667;SDS011;3370;47.712;9.082;2023-10-08T04:33:05;12.33;;;9.20;;
6667;SDS011;3370;47.712;9.082;2023-10-08T04:35:41;14.80;;;9.90;;
6667;SDS011;3370;47.712;9.082;2023-10-08T04:38:21;14.77;;;9.80;;
6667;SDS011;3370;47.712;9.082;2023-10-08T04:40:51;11.30;;;8.43;;
6667;SDS011;3370;47.712;9.082;2023-10-08T04:43:18;11.67;;;9.47;;
6667;SDS011;3370;47.712;9.082;2023-10-08T04:45:53;13.20;;;9.00;;
6667;SDS011;3370;47.712;9.082;2023-10-08T04:48:22;12.63;;;9.90;;
6667;SDS011;3370;47.712;9.082;2023-10-08T04:50:54;12.07;;;8.93;;
6667;SDS011;3370;47.712;9.082;2023-10-08T04:53:26;10.77;;;7.87;;
6667;SDS011;3370;47.712;9.082;2023-10-08T04:56:12;13.40;;;8.40;;
6667;SDS011;3370;47.712;9.082;2023-10-08T04:58:44;13.40;;;9.20;;
6667;SDS011;3370;47.712;9.082;2023-10-08T05:01:12;12.13;;;8.67;;
6667;SDS011;3370;47.712;9.082;2023-10-08T05:03:46;11.50;;;9.43;;
6667;SDS011;3370;47.712;9.082;2023-10-08T05:06:28;11.63;;;9.77;;
6667;SDS011;3370;47.712;9.082;2023-10-08T05:09:02;11.90;;;9.53;;
6667;SDS011;3370;47.712;9.082;2023-10-08T05:11:50;13.27;;;10.30;;
6667;SDS011;3370;47.712;9.082;2023-10-08T05:16:58;13.27;;;8.90;;
6667;SDS011;3370;47.712;9.082;2023-10-08T05:19:43;11.07;;;8.77;;
6667;SDS011;3370;47.712;9.082;2023-10-08T05:22:41;18.23;;;9.17;;
6667;SDS011;3370;47.712;9.082;2023-10-08T05:25:09;10.90;;;8.70;;
6667;SDS011;3370;47.712;9.082;2023-10-08T05:27:38;13.57;;;9.53;;
6667;SDS011;3370;47.712;9.082;2023-10-08T05:33:07;16.40;;;11.90;;
6667;SDS011;3370;47.712;9.082;2023-10-08T05:35:50;16.90;;;11.17;;
6667;SDS011;3370;47.712;9.082;2023-10-08T05:38:27;14.00;;;10.70;;
6667;SDS011;3370;47.712;9.082;2023-10-08T05:40:59;17.73;;;9.90;;
6667;SDS011;3370;47.712;9.082;2023-10-08T05:43:26;12.67;;;9.67;;
6667;SDS011;3370;47.712;9.082;2023-10-08T05:46:09;11.87;;;8.87;;
6667;SDS011;3370;47.712;9.082;2023-10-08T05:48:54;11.27;;;8.50;;
6667;SDS011;3370;47.712;9.082;2023-10-08T05:51:32;12.07;;;9.47;;
6667;SDS011;3370;47.712;9.082;2023-10-08T05:54:12;12.10;;;9.00;;
6667;SDS011;3370;47.712;9.082;2023-10-08T05:56:52;13.33;;;8.80;;
6667;SDS011;3370;47.712;9.082;2023-10-08T05:59:30;14.53;;;9.80;;
6667;SDS011;3370;47.712;9.082;2023-10-08T06:02:05;15.43;;;9.60;;
6667;SDS011;3370;47.712;9.082;2023-10-08T06:04:51;15.53;;;10.63;;
6667;SDS011;3370;47.712;9.082;2023-10-08T06:07:34;14.83;;;10.03;;
6667;SDS011;3370;47.712;9.082;2023-10-08T06:13:03;14.13;;;9.67;;
6667;SDS011;3370;47.712;9.082;2023-10-08T06:15:52;13.50;;;8.83;;
6667;SDS011;3370;47.712;9.082;2023-10-08T06:20:51;14.70;;;9.60;;
6667;SDS011;3370;47.712;9.082;2023-10-08T06:23:23;10.87;;;9.27;;
6667;SDS011;3370;47.712;9.082;2023-10-08T06:25:51;14.70;;;9.67;;
6667;SDS011;3370;47.712;9.082;2023-10-08T06:28:42;12.00;;;9.50;;
6667;SDS011;3370;47.712;9.082;2023-10-08T06:31:09;13.27;;;9.33;;
6667;SDS011;3370;47.712;9.082;2023-10-08T06:33:43;12.63;;;9.30;;
6667;SDS011;3370;47.712;9.082;2023-10-08T06:36:09;14.20;;;10.03;;
6667;SDS011;3370;47.712;9.082;2023-10-08T06:38:36;12.80;;;8.87;;
6667;SDS011;3370;47.712;9.082;2023-10-08T06:41:07;11.67;;;9.37;;
6667;SDS011;3370;47.712;9.082;2023-10-08T06:43:38;12.10;;;9.70;;
6667;SDS011;3370;47.712;9.082;2023-10-08T06:46:12;21.33;;;9.80;;
6667;SDS011;3370;47.712;9.082;2023-10-08T06:48:39;16.30;;;9.83;;
6667;SDS011;3370;47.712;9.082;2023-10-08T06:51:10;17.33;;;10.57;;
6667;SDS011;3370;47.712;9.082;2023-10-08T06:53:43;11.67;;;9.50;;
6667;SDS011;3370;47.712;9.082;2023-10-08T06:56:13;12.00;;;9.03;;
6667;SDS011;3370;47.712;9.082;2023-10-08T06:58:41;15.23;;;10.67;;
6667;SDS011;3370;47.712;9.082;2023-10-08T07:01:13;18.97;;;11.60;;
6667;SDS011;3370;47.712;9.082;2023-10-08T07:03:46;16.03;;;11.70;;
6667;SDS011;3370;47.712;9.082;2023-10-08T07:06:16;15.27;;;11.37;;
6667;SDS011;3370;47.712;9.082;2023-10-08T07:08:56;17.33;;;12.40;;
6667;SDS011;3370;47.712;9.082;2023-10-08T07:11:31;17.53;;;11.57;;
6667;SDS011;3370;47.712;9.082;2023-10-08T07:14:02;13.90;;;11.50;;
6667;SDS011;3370;47.712;9.082;2023-10-08T07:16:29;15.97;;;12.97;;
6667;SDS011;3370;47.712;9.082;2023-10-08T07:18:58;16.90;;;10.90;;
6667;SDS011;3370;47.712;9.082;2023-10-08T07:21:28;19.73;;;10.93;;
6667;SDS011;3370;47.712;9.082;2023-10-08T07:23:54;17.57;;;11.10;;
6667;SDS011;3370;47.712;9.082;2023-10-08T07:26:27;12.77;;;9.90;;
6667;SDS011;3370;47.712;9.082;2023-10-08T07:29:03;17.00;;;11.20;;
6667;SDS011;3370;47.712;9.082;2023-10-08T07:31:32;15.23;;;10.90;;
6667;SDS011;3370;47.712;9.082;2023-10-08T07:33:59;16.00;;;10.93;;
6667;SDS011;3370;47.712;9.082;2023-10-08T07:36:40;17.17;;;9.53;;
6667;SDS011;3370;47.712;9.082;2023-10-08T07:39:12;14.83;;;9.60;;
6667;SDS011;3370;47.712;9.082;2023-10-08T07:41:52;11.90;;;9.17;;
6667;SDS011;3370;47.712;9.082;2023-10-08T07:44:26;12.20;;;9.43;;
6667;SDS011;3370;47.712;9.082;2023-10-08T07:46:55;13.47;;;10.00;;
6667;SDS011;3370;47.712;9.082;2023-10-08T07:49:22;15.80;;;10.73;;
6667;SDS011;3370;47.712;9.082;2023-10-08T07:51:50;14.70;;;9.90;;
6667;SDS011;3370;47.712;9.082;2023-10-08T07:54:26;17.30;;;10.53;;
6667;SDS011;3370;47.712;9.082;2023-10-08T07:56:59;12.77;;;9.70;;
6667;SDS011;3370;47.712;9.082;2023-10-08T07:59:42;15.67;;;10.83;;
6667;SDS011;3370;47.712;9.082;2023-10-08T08:02:11;13.57;;;9.77;;
6667;SDS011;3370;47.712;9.082;2023-10-08T08:04:42;18.40;;;10.70;;
6667;SDS011;3370;47.712;9.082;2023-10-08T08:07:10;11.67;;;10.20;;
6667;SDS011;3370;47.712;9.082;2023-10-08T08:09:44;11.53;;;9.27;;
6667;SDS011;3370;47.712;9.082;2023-10-08T08:12:22;13.80;;;9.33;;
6667;SDS011;3370;47.712;9.082;2023-10-08T08:14:50;13.10;;;9.50;;
6667;SDS011;3370;47.712;9.082;2023-10-08T08:17:19;17.03;;;9.80;;
6667;SDS011;3370;47.712;9.082;2023-10-08T08:19:47;15.40;;;8.97;;
6667;SDS011;3370;47.712;9.082;2023-10-08T08:22:16;19.33;;;9.40;;
6667;SDS011;3370;47.712;9.082;2023-10-08T08:24:50;13.10;;;10.00;;
6667;SDS011;3370;47.712;9.082;2023-10-08T08:27:19;12.93;;;8.23;;
6667;SDS011;3370;47.712;9.082;2023-10-08T08:29:56;11.83;;;8.53;;
6667;SDS011;3370;47.712;9.082;2023-10-08T08:32:35;17.63;;;10.03;;
6667;SDS011;3370;47.712;9.082;2023-10-08T08:35:07;13.90;;;9.50;;
6667;SDS011;3370;47.712;9.082;2023-10-08T08:37:37;14.33;;;9.40;;
6667;SDS011;3370;47.712;9.082;2023-10-08T08:40:06;14.17;;;8.37;;
6667;SDS011;3370;47.712;9.082;2023-10-08T08:42:45;16.60;;;9.00;;
6667;SDS011;3370;47.712;9.082;2023-10-08T08:45:21;12.27;;;8.97;;
6667;SDS011;3370;47.712;9.082;2023-10-08T08:47:51;15.10;;;9.87;;
6667;SDS011;3370;47.712;9.082;2023-10-08T08:50:18;16.57;;;9.63;;
6667;SDS011;3370;47.712;9.082;2023-10-08T08:52:44;13.63;;;9.87;;
6667;SDS011;3370;47.712;9.082;2023-10-08T08:55:11;14.87;;;8.80;;
6667;SDS011;3370;47.712;9.082;2023-10-08T08:57:43;13.87;;;8.50;;
6667;SDS011;3370;47.712;9.082;2023-10-08T09:00:11;13.03;;;8.70;;
6667;SDS011;3370;47.712;9.082;2023-10-08T09:02:39;13.77;;;8.00;;
6667;SDS011;3370;47.712;9.082;2023-10-08T09:05:10;15.60;;;8.57;;
6667;SDS011;3370;47.712;9.082;2023-10-08T09:08:04;20.40;;;9.20;;
6667;SDS011;3370;47.712;9.082;2023-10-08T09:10:35;14.50;;;8.07;;
6667;SDS011;3370;47.712;9.082;2023-10-08T09:13:03;15.63;;;7.40;;
6667;SDS011;3370;47.712;9.082;2023-10-08T09:15:32;16.00;;;8.80;;
6667;SDS011;3370;47.712;9.082;2023-10-08T09:17:58;14.70;;;9.13;;
6667;SDS011;3370;47.712;9.082;2023-10-08T09:20:31;11.83;;;7.90;;
6667;SDS011;3370;47.712;9.082;2023-10-08T09:23:09;19.73;;;8.77;;
6667;SDS011;3370;47.712;9.082;2023-10-08T09:25:46;11.77;;;7.77;;
6667;SDS011;3370;47.712;9.082;2023-10-08T09:28:27;10.60;;;7.10;;
6667;SDS011;3370;47.712;9.082;2023-10-08T09:30:54;18.33;;;8.13;;
6667;SDS011;3370;47.712;9.082;2023-10-08T09:33:24;12.17;;;7.30;;
6667;SDS011;3370;47.712;9.082;2023-10-08T09:35:50;14.53;;;7.13;;
6667;SDS011;3370;47.712;9.082;2023-10-08T09:38:20;14.03;;;8.50;;
6667;SDS011;3370;47.712;9.082;2023-10-08T09:40:48;19.57;;;7.77;;
6667;SDS011;3370;47.712;9.082;2023-10-08T09:43:15;11.83;;;7.70;;
6667;SDS011;3370;47.712;9.082;2023-10-08T09:45:50;13.20;;;7.30;;
6667;SDS011;3370;47.712;9.082;2023-10-08T09:48:25;18.80;;;8.97;;
6667;SDS011;3370;47.712;9.082;2023-10-08T09:50:53;14.77;;;9.57;;
6667;SDS011;3370;47.712;9.082;2023-10-08T09:53:26;12.00;;;7.30;;
6667;SDS011;3370;47.712;9.082;2023-10-08T09:56:12;17.83;;;7.87;;
6667;SDS011;3370;47.712;9.082;2023-10-08T09:58:43;15.03;;;8.53;;
6667;SDS011;3370;47.712;9.082;2023-10-08T10:01:09;11.63;;;6.83;;
6667;SDS011;3370;47.712;9.082;2023-10-08T10:03:36;11.57;;;6.70;;
6667;SDS011;3370;47.712;9.082;2023-10-08T10:06:02;13.17;;;8.03;;
6667;SDS011;3370;47.712;9.082;2023-10-08T10:08:35;15.37;;;8.40;;
6667;SDS011;3370;47.712;9.082;2023-10-08T10:11:01;10.53;;;7.20;;
6667;SDS011;3370;47.712;9.082;2023-10-08T10:14:13;19.57;;;8.30;;
6667;SDS011;3370;47.712;9.082;2023-10-08T10:16:24;15.03;;;7.40;;
6667;SDS011;3370;47.712;9.082;2023-10-08T10:18:54;11.20;;;6.80;;
6667;SDS011;3370;47.712;9.082;2023-10-08T10:21:28;12.60;;;6.20;;
6667;SDS011;3370;47.712;9.082;2023-10-08T10:23:57;14.07;;;7.20;;
6667;SDS011;3370;47.712;9.082;2023-10-08T10:31:46;10.90;;;6.17;;
6667;SDS011;3370;47.712;9.082;2023-10-08T10:34:17;11.17;;;6.70;;
6667;SDS011;3370;47.712;9.082;2023-10-08T10:36:47;18.93;;;8.20;;
6667;SDS011;3370;47.712;9.082;2023-10-08T10:39:20;17.80;;;7.40;;
6667;SDS011;3370;47.712;9.082;2023-10-08T10:42:06;18.93;;;6.13;;
6667;SDS011;3370;47.712;9.082;2023-10-08T10:44:45;14.70;;;7.97;;
6667;SDS011;3370;47.712;9.082;2023-10-08T10:47:15;16.13;;;6.60;;
6667;SDS011;3370;47.712;9.082;2023-10-08T10:49:42;14.53;;;7.00;;
6667;SDS011;3370;47.712;9.082;2023-10-08T10:52:22;17.37;;;7.60;;
6667;SDS011;3370;47.712;9.082;2023-10-08T10:55:16;14.70;;;6.37;;
6667;SDS011;3370;47.712;9.082;2023-10-08T10:57:48;12.00;;;7.03;;
6667;SDS011;3370;47.712;9.082;2023-10-08T11:00:49;15.43;;;6.43;;
6667;SDS011;3370;47.712;9.082;2023-10-08T11:03:22;13.70;;;7.10;;
6667;SDS011;3370;47.712;9.082;2023-10-08T11:05:58;10.90;;;6.60;;
6667;SDS011;3370;47.712;9.082;2023-10-08T11:08:31;8.67;;;5.77;;
6667;SDS011;3370;47.712;9.082;2023-10-08T11:11:00;14.00;;;6.67;;
6667;SDS011;3370;47.712;9.082;2023-10-08T11:13:31;13.37;;;6.30;;
6667;SDS011;3370;47.712;9.082;2023-10-08T11:16:06;18.10;;;6.37;;
6667;SDS011;3370;47.712;9.082;2023-10-08T11:18:42;11.47;;;6.37;;
6667;SDS011;3370;47.712;9.082;2023-10-08T11:21:15;12.93;;;6.57;;
6667;SDS011;3370;47.712;9.082;2023-10-08T11:23:46;18.83;;;6.90;;
6667;SDS011;3370;47.712;9.082;2023-10-08T11:26:17;16.97;;;6.17;;
6667;SDS011;3370;47.712;9.082;2023-10-08T11:28:44;10.97;;;6.03;;
6667;SDS011;3370;47.712;9.082;2023-10-08T11:31:14;15.47;;;6.90;;
6667;SDS011;3370;47.712;9.082;2023-10-08T11:33:44;19.00;;;6.23;;
6667;SDS011;3370;47.712;9.082;2023-10-08T11:36:20;17.60;;;5.97;;
6667;SDS011;3370;47.712;9.082;2023-10-08T11:38:57;16.40;;;7.23;;
6667;SDS011;3370;47.712;9.082;2023-10-08T11:41:36;17.90;;;6.80;;
6667;SDS011;3370;47.712;9.082;2023-10-08T11:44:17;17.83;;;7.07;;
6667;SDS011;3370;47.712;9.082;2023-10-08T11:46:48;19.83;;;5.93;;
6667;SDS011;3370;47.712;9.082;2023-10-08T11:49:17;13.33;;;6.17;;
6667;SDS011;3370;47.712;9.082;2023-10-08T11:51:44;14.83;;;6.20;;
6667;SDS011;3370;47.712;9.082;2023-10-08T11:54:11;7.57;;;5.33;;
6667;SDS011;3370;47.712;9.082;2023-10-08T11:56:38;14.47;;;6.37;;
6667;SDS011;3370;47.712;9.082;2023-10-08T11:59:04;9.07;;;5.77;;
6667;SDS011;3370;47.712;9.082;2023-10-08T12:01:34;12.00;;;5.80;;
6667;SDS011;3370;47.712;9.082;2023-10-08T12:04:07;10.23;;;5.70;;
6667;SDS011;3370;47.712;9.082;2023-10-08T12:06:41;14.17;;;7.10;;
6667;SDS011;3370;47.712;9.082;2023-10-08T12:09:17;15.00;;;6.27;;
6667;SDS011;3370;47.712;9.082;2023-10-08T12:11:46;11.30;;;6.43;;
6667;SDS011;3370;47.712;9.082;2023-10-08T12:14:13;14.43;;;6.60;;
6667;SDS011;3370;47.712;9.082;2023-10-08T12:16:40;16.33;;;6.83;;
6667;SDS011;3370;47.712;9.082;2023-10-08T12:19:07;12.80;;;5.57;;
6667;SDS011;3370;47.712;9.082;2023-10-08T12:21:42;12.63;;;5.60;;
6667;SDS011;3370;47.712;9.082;2023-10-08T12:24:13;14.63;;;6.10;;
6667;SDS011;3370;47.712;9.082;2023-10-08T12:26:39;20.23;;;6.37;;
6667;SDS011;3370;47.712;9.082;2023-10-08T12:29:14;12.70;;;5.97;;
6667;SDS011;3370;47.712;9.082;2023-10-08T12:31:44;10.87;;;5.40;;
6667;SDS011;3370;47.712;9.082;2023-10-08T12:34:13;17.37;;;5.60;;
6667;SDS011;3370;47.712;9.082;2023-10-08T12:36:39;10.77;;;5.40;;
6667;SDS011;3370;47.712;9.082;2023-10-08T12:39:05;13.63;;;6.10;;
6667;SDS011;3370;47.712;9.082;2023-10-08T12:41:43;14.50;;;7.10;;
6667;SDS011;3370;47.712;9.082;2023-10-08T12:44:12;15.23;;;6.10;;
6667;SDS011;3370;47.712;9.082;2023-10-08T12:46:40;9.57;;;5.57;;
6667;SDS011;3370;47.712;9.082;2023-10-08T12:49:08;12.47;;;5.97;;
6667;SDS011;3370;47.712;9.082;2023-10-08T12:51:35;13.03;;;6.30;;
6667;SDS011;3370;47.712;9.082;2023-10-08T12:54:06;15.07;;;5.87;;
6667;SDS011;3370;47.712;9.082;2023-10-08T12:56:33;11.50;;;5.80;;
6667;SDS011;3370;47.712;9.082;2023-10-08T12:59:14;16.37;;;6.03;;
6667;SDS011;3370;47.712;9.082;2023-10-08T13:01:45;15.30;;;5.77;;
6667;SDS011;3370;47.712;9.082;2023-10-08T13:04:16;16.50;;;7.07;;
6667;SDS011;3370;47.712;9.082;2023-10-08T13:06:56;16.33;;;6.67;;
6667;SDS011;3370;47.712;9.082;2023-10-08T13:09:26;14.33;;;6.00;;
6667;SDS011;3370;47.712;9.082;2023-10-08T13:11:52;14.70;;;5.60;;
6667;SDS011;3370;47.712;9.082;2023-10-08T13:14:18;15.53;;;6.37;;
6667;SDS011;3370;47.712;9.082;2023-10-08T13:16:44;21.97;;;6.00;;
6667;SDS011;3370;47.712;9.082;2023-10-08T13:19:10;14.10;;;6.10;;
6667;SDS011;3370;47.712;9.082;2023-10-08T13:21:36;13.47;;;5.60;;
6667;SDS011;3370;47.712;9.082;2023-10-08T13:24:02;14.83;;;7.17;;
6667;SDS011;3370;47.712;9.082;2023-10-08T13:26:33;15.53;;;5.40;;
6667;SDS011;3370;47.712;9.082;2023-10-08T13:29:02;12.67;;;6.03;;
6667;SDS011;3370;47.712;9.082;2023-10-08T13:31:28;14.73;;;6.10;;
6667;SDS011;3370;47.712;9.082;2023-10-08T13:33:54;10.63;;;5.50;;
6667;SDS011;3370;47.712;9.082;2023-10-08T13:36:22;13.27;;;5.50;;
6667;SDS011;3370;47.712;9.082;2023-10-08T13:38:49;13.53;;;6.13;;
6667;SDS011;3370;47.712;9.082;2023-10-08T13:41:16;13.00;;;5.57;;
6667;SDS011;3370;47.712;9.082;2023-10-08T13:43:46;13.93;;;5.90;;
6667;SDS011;3370;47.712;9.082;2023-10-08T13:46:17;18.60;;;6.50;;
6667;SDS011;3370;47.712;9.082;2023-10-08T13:48:47;24.90;;;5.30;;
6667;SDS011;3370;47.712;9.082;2023-10-08T13:51:15;13.50;;;5.33;;
6667;SDS011;3370;47.712;9.082;2023-10-08T13:53:49;13.23;;;6.27;;
6667;SDS011;3370;47.712;9.082;2023-10-08T13:56:24;11.87;;;5.00;;
6667;SDS011;3370;47.712;9.082;2023-10-08T13:58:56;18.30;;;5.67;;
6667;SDS011;3370;47.712;9.082;2023-10-08T14:01:32;17.20;;;5.70;;
6667;SDS011;3370;47.712;9.082;2023-10-08T14:03:59;16.50;;;7.07;;
6667;SDS011;3370;47.712;9.082;2023-10-08T14:06:32;14.53;;;5.90;;
6667;SDS011;3370;47.712;9.082;2023-10-08T14:09:05;22.20;;;6.30;;
6667;SDS011;3370;47.712;9.082;2023-10-08T14:11:37;20.63;;;5.77;;
6667;SDS011;3370;47.712;9.082;2023-10-08T14:14:03;14.90;;;6.03;;
6667;SDS011;3370;47.712;9.082;2023-10-08T14:16:35;27.07;;;7.30;;
6667;SDS011;3370;47.712;9.082;2023-10-08T14:19:06;16.03;;;5.90;;
6667;SDS011;3370;47.712;9.082;2023-10-08T14:21:40;15.20;;;6.10;;
6667;SDS011;3370;47.712;9.082;2023-10-08T14:24:20;24.77;;;5.90;;
6667;SDS011;3370;47.712;9.082;2023-10-08T14:26:46;20.57;;;6.83;;
6667;SDS011;3370;47.712;9.082;2023-10-08T14:29:21;14.60;;;6.90;;
6667;SDS011;3370;47.712;9.082;2023-10-08T14:31:49;10.03;;;6.00;;
6667;SDS011;3370;47.712;9.082;2023-10-08T14:34:15;10.33;;;5.83;;
6667;SDS011;3370;47.712;9.082;2023-10-08T14:36:42;18.97;;;6.10;;
6667;SDS011;3370;47.712;9.082;2023-10-08T14:39:34;12.97;;;6.20;;
6667;SDS011;3370;47.712;9.082;2023-10-08T14:42:18;14.60;;;7.00;;
6667;SDS011;3370;47.712;9.082;2023-10-08T14:45:03;11.30;;;5.70;;
6667;SDS011;3370;47.712;9.082;2023-10-08T14:47:39;14.63;;;6.47;;
6667;SDS011;3370;47.712;9.082;2023-10-08T14:50:06;12.03;;;5.93;;
6667;SDS011;3370;47.712;9.082;2023-10-08T14:52:41;13.97;;;5.83;;
6667;SDS011;3370;47.712;9.082;2023-10-08T14:55:10;8.10;;;4.93;;
6667;SDS011;3370;47.712;9.082;2023-10-08T14:57:37;13.10;;;6.10;;
6667;SDS011;3370;47.712;9.082;2023-10-08T15:00:04;23.40;;;6.07;;
6667;SDS011;3370;47.712;9.082;2023-10-08T15:02:31;12.40;;;5.77;;
6667;SDS011;3370;47.712;9.082;2023-10-08T15:04:58;15.43;;;5.82;;
6667;SDS011;3370;47.712;9.082;2023-10-08T15:07:26;8.93;;;5.97;;
6667;SDS011;3370;47.712;9.082;2023-10-08T15:09:54;10.13;;;6.00;;
6667;SDS011;3370;47.712;9.082;2023-10-08T15:12:23;13.00;;;5.83;;
6667;SDS011;3370;47.712;9.082;2023-10-08T15:14:50;8.63;;;5.53;;
6667;SDS011;3370;47.712;9.082;2023-10-08T15:17:17;9.73;;;5.60;;
6667;SDS011;3370;47.712;9.082;2023-10-08T15:19:43;13.73;;;4.77;;
6667;SDS011;3370;47.712;9.082;2023-10-08T15:22:11;12.47;;;5.73;;
6667;SDS011;3370;47.712;9.082;2023-10-08T15:24:37;11.83;;;6.23;;
6667;SDS011;3370;47.712;9.082;2023-10-08T15:27:05;10.33;;;6.00;;
6667;SDS011;3370;47.712;9.082;2023-10-08T15:29:31;16.57;;;6.53;;
6667;SDS011;3370;47.712;9.082;2023-10-08T15:31:58;10.63;;;6.80;;
6667;SDS011;3370;47.712;9.082;2023-10-08T15:34:24;17.43;;;7.50;;
6667;SDS011;3370;47.712;9.082;2023-10-08T15:36:54;12.83;;;6.10;;
6667;SDS011;3370;47.712;9.082;2023-10-08T15:39:20;11.00;;;6.33;;
6667;SDS011;3370;47.712;9.082;2023-10-08T15:41:49;19.80;;;6.57;;
6667;SDS011;3370;47.712;9.082;2023-10-08T15:44:16;15.03;;;6.43;;
6667;SDS011;3370;47.712;9.082;2023-10-08T15:46:48;14.87;;;6.70;;
6667;SDS011;3370;47.712;9.082;2023-10-08T15:49:15;12.43;;;5.70;;